Time;durP1;ratioP1;P1;durP2;ratioP2;P2;SDS_P1;SDS_P2;PMS_P1;PMS_P2;Temp;Humidity;BMP_temperature;BMP_pressure;BME280_temperature;BME280_humidity;BME280_pressure;Samples;Min_cycle;Max_cycle;Signal;HPM_P1;HPM_P2
2023/05/06 00:01:58;;;;;;;9.47;6.87;;;17.60;1.00;;;;;;5067142;28;20203;-53
2023/05/06 00:04:23;;;;;;;7.03;6.13;;;17.50;1.00;;;;;;5068783;28;20713;-54
2023/05/06 00:06:50;;;;;;;8.70;6.40;;;17.40;1.00;;;;;;5061772;28;20680;-52
2023/05/06 00:09:16;;;;;;;9.20;6.83;;;17.40;1.00;;;;;;5080044;28;20191;-55
2023/05/06 00:11:41;;;;;;;7.30;6.60;;;17.40;1.00;;;;;;5081447;28;20449;-53
2023/05/06 00:14:07;;;;;;;7.90;6.97;;;17.30;1.00;;;;;;5074812;28;20473;-51
2023/05/06 00:16:33;;;;;;;7.37;6.10;;;17.30;1.00;;;;;;5066256;28;20188;-54
2023/05/06 00:18:58;;;;;;;7.60;6.63;;;17.30;1.00;;;;;;5067745;28;20879;-54
2023/05/06 00:21:24;;;;;;;7.43;6.73;;;17.20;1.00;;;;;;5064663;28;20187;-53
2023/05/06 00:23:49;;;;;;;14.37;6.90;;;17.20;1.00;;;;;;5078431;28;20203;-55
2023/05/06 00:26:15;;;;;;;9.60;6.90;;;17.20;1.00;;;;;;5072594;28;20187;-55
2023/05/06 00:28:40;;;;;;;7.23;6.53;;;17.20;1.00;;;;;;5081577;28;20543;-54
2023/05/06 00:31:08;;;;;;;7.90;7.10;;;17.20;1.00;;;;;;5068962;28;20198;-52
2023/05/06 00:33:34;;;;;;;7.43;6.60;;;17.10;1.00;;;;;;5067257;28;20642;-53
2023/05/06 00:35:59;;;;;;;7.70;6.90;;;17.00;1.00;;;;;;5066338;28;20507;-52
2023/05/06 00:38:25;;;;;;;8.87;7.50;;;17.00;1.00;;;;;;5065080;28;20257;-53
2023/05/06 00:40:50;;;;;;;8.20;7.43;;;16.90;1.00;;;;;;5064047;28;20198;-58
2023/05/06 00:43:16;;;;;;;7.90;7.10;;;16.80;1.00;;;;;;5069092;28;20661;-55
2023/05/06 00:45:42;;;;;;;8.10;7.30;;;16.80;1.00;;;;;;5065926;28;20195;-53
2023/05/06 00:48:08;;;;;;;9.47;7.33;;;16.80;1.00;;;;;;5068491;28;20180;-54
2023/05/06 00:50:34;;;;;;;8.60;7.20;;;16.80;1.00;;;;;;5072683;28;20219;-54
2023/05/06 00:53:02;;;;;;;7.93;7.13;;;16.70;1.00;;;;;;5082610;28;20539;-54
2023/05/06 00:55:29;;;;;;;8.93;7.27;;;16.70;1.00;;;;;;5066305;28;21068;-53
2023/05/06 00:57:56;;;;;;;9.40;7.70;;;16.60;1.00;;;;;;5067073;28;20446;-54
2023/05/06 01:00:21;;;;;;;7.73;6.93;;;16.50;1.00;;;;;;5066032;28;20481;-54
2023/05/06 01:02:47;;;;;;;9.03;7.90;;;16.50;1.00;;;;;;5071100;28;20509;-54
2023/05/06 01:05:16;;;;;;;8.70;7.70;;;16.40;1.00;;;;;;5066660;28;20453;-57
2023/05/06 01:08:05;;;;;;;10.00;9.00;;;16.40;1.00;;;;;;5067322;28;20445;-53
2023/05/06 01:10:40;;;;;;;11.07;8.27;;;16.40;1.00;;;;;;5062510;28;20482;-54
2023/05/06 01:13:34;;;;;;;8.30;7.50;;;16.30;1.00;;;;;;5071436;28;20543;-55
2023/05/06 01:16:01;;;;;;;11.80;8.67;;;16.20;1.00;;;;;;5065963;28;20495;-54
2023/05/06 01:18:31;;;;;;;10.27;8.33;;;16.20;1.00;;;;;;5072176;28;20511;-53
2023/05/06 01:20:58;;;;;;;9.17;8.27;;;16.20;1.00;;;;;;5070465;28;20477;-54
2023/05/06 01:23:24;;;;;;;11.33;9.97;;;16.20;1.00;;;;;;5072295;28;20458;-55
2023/05/06 01:25:49;;;;;;;8.87;7.97;;;16.20;1.00;;;;;;5070932;28;20449;-53
2023/05/06 01:28:15;;;;;;;8.67;7.70;;;16.10;1.00;;;;;;5069702;28;20192;-53
2023/05/06 01:30:50;;;;;;;10.23;8.90;;;16.20;1.00;;;;;;5072406;28;20687;-52
2023/05/06 01:33:27;;;;;;;9.77;8.70;;;16.20;1.00;;;;;;5074117;28;20187;-53
2023/05/06 01:36:17;;;;;;;9.80;8.80;;;16.20;1.00;;;;;;5064875;28;20772;-52
2023/05/06 01:39:17;;;;;;;9.27;8.33;;;16.20;1.00;;;;;;5077448;28;20452;-54
2023/05/06 01:41:46;;;;;;;9.10;8.30;;;16.20;1.00;;;;;;5072607;28;20453;-53
2023/05/06 01:44:13;;;;;;;9.40;8.60;;;16.20;1.00;;;;;;5069207;28;20879;-54
2023/05/06 01:46:39;;;;;;;12.27;9.27;;;16.10;1.00;;;;;;5071749;28;20955;-56
2023/05/06 01:49:10;;;;;;;10.30;8.50;;;16.10;1.00;;;;;;5079784;28;20941;-55
2023/05/06 01:51:36;;;;;;;11.20;9.07;;;16.10;1.00;;;;;;5068172;28;20445;-52
2023/05/06 01:54:02;;;;;;;9.80;8.87;;;16.10;1.00;;;;;;5068600;28;20442;-51
2023/05/06 01:56:31;;;;;;;10.23;9.23;;;15.80;1.00;;;;;;5067390;28;20940;-55
2023/05/06 01:58:57;;;;;;;10.07;9.10;;;16.00;1.00;;;;;;5071026;28;20431;-55
2023/05/06 02:01:23;;;;;;;9.97;8.97;;;16.10;1.00;;;;;;5066661;28;20505;-56
2023/05/06 02:03:48;;;;;;;9.80;8.80;;;16.00;1.00;;;;;;5068632;28;20485;-52
2023/05/06 02:06:14;;;;;;;10.50;9.50;;;16.00;1.00;;;;;;5066082;28;20450;-53
2023/05/06 02:08:40;;;;;;;11.40;9.77;;;16.00;1.00;;;;;;5087610;28;20198;-51
2023/05/06 02:11:05;;;;;;;9.97;8.97;;;16.00;1.00;;;;;;5068655;28;20249;-52
2023/05/06 02:13:31;;;;;;;12.93;10.33;;;15.90;1.00;;;;;;5062249;28;20200;-53
2023/05/06 02:15:56;;;;;;;11.07;9.57;;;15.90;1.00;;;;;;5068953;28;20179;-51
2023/05/06 02:18:22;;;;;;;9.17;8.37;;;15.90;1.00;;;;;;5069477;28;20191;-53
2023/05/06 02:20:48;;;;;;;10.17;9.17;;;15.90;1.00;;;;;;5081197;28;20222;-54
2023/05/06 02:23:13;;;;;;;11.47;9.77;;;15.90;1.00;;;;;;5071563;28;20604;-53
2023/05/06 02:25:39;;;;;;;10.03;9.03;;;15.80;1.00;;;;;;5076173;28;20226;-55
2023/05/06 02:28:04;;;;;;;10.83;9.73;;;15.80;1.00;;;;;;5070789;28;20672;-54
2023/05/06 02:30:31;;;;;;;9.03;8.23;;;15.80;1.00;;;;;;5070478;28;20189;-53
2023/05/06 02:32:57;;;;;;;10.90;8.40;;;15.80;1.00;;;;;;5069749;28;20176;-56
2023/05/06 02:35:23;;;;;;;10.70;9.70;;;15.90;1.00;;;;;;5075847;28;20450;-53
2023/05/06 02:37:48;;;;;;;9.83;8.83;;;15.80;1.00;;;;;;5068363;28;20449;-53
2023/05/06 02:40:14;;;;;;;9.70;8.80;;;15.80;1.00;;;;;;5069414;28;20446;-53
2023/05/06 02:42:40;;;;;;;12.97;10.87;;;15.70;1.00;;;;;;5068056;28;20207;-53
2023/05/06 02:45:06;;;;;;;10.20;8.90;;;15.70;1.00;;;;;;5067539;28;20183;-53
2023/05/06 02:47:32;;;;;;;11.03;9.10;;;15.70;1.00;;;;;;5083748;28;20179;-52
2023/05/06 02:49:57;;;;;;;10.40;9.40;;;15.70;1.00;;;;;;5083688;28;20442;-54
2023/05/06 02:52:23;;;;;;;10.83;9.73;;;15.70;1.00;;;;;;5065907;28;20215;-54
2023/05/06 02:54:49;;;;;;;11.67;9.00;;;15.80;1.00;;;;;;5068076;28;20219;-53
2023/05/06 02:57:15;;;;;;;9.80;8.80;;;15.80;1.00;;;;;;5068339;28;20685;-54
2023/05/06 02:59:40;;;;;;;10.20;9.20;;;15.80;1.00;;;;;;5067600;28;20850;-52
2023/05/06 03:02:06;;;;;;;10.50;9.40;;;15.80;1.00;;;;;;5066961;28;20252;-51
2023/05/06 03:04:32;;;;;;;10.13;9.17;;;15.80;1.00;;;;;;5077880;28;20191;-53
2023/05/06 03:06:58;;;;;;;10.03;9.03;;;15.90;1.00;;;;;;5068770;28;20454;-57
2023/05/06 03:09:23;;;;;;;11.43;10.23;;;15.90;1.00;;;;;;5060573;28;20199;-54
2023/05/06 03:11:49;;;;;;;9.90;9.00;;;16.10;1.00;;;;;;5063467;28;20198;-55
2023/05/06 03:14:15;;;;;;;9.80;8.90;;;16.00;1.00;;;;;;5074527;28;21723;-53
2023/05/06 03:16:40;;;;;;;9.43;8.43;;;15.90;1.00;;;;;;5069058;28;20642;-54
2023/05/06 03:19:06;;;;;;;11.50;8.70;;;16.00;1.00;;;;;;5074462;28;20179;-54
2023/05/06 03:21:32;;;;;;;9.77;8.83;;;16.00;1.00;;;;;;5073520;28;20700;-53
2023/05/06 03:23:58;;;;;;;10.80;9.00;;;16.00;1.00;;;;;;5069940;28;20179;-55
2023/05/06 03:26:23;;;;;;;10.43;8.70;;;16.00;1.00;;;;;;5065342;28;20248;-53
2023/05/06 03:28:49;;;;;;;10.20;9.20;;;16.20;1.00;;;;;;5069650;28;20471;-53
2023/05/06 03:31:14;;;;;;;11.63;9.60;;;16.10;1.00;;;;;;5075303;28;20199;-55
2023/05/06 03:33:40;;;;;;;10.13;8.90;;;16.20;1.00;;;;;;5066463;28;20283;-53
2023/05/06 03:36:06;;;;;;;10.63;9.63;;;16.20;1.00;;;;;;5066063;28;20266;-54
2023/05/06 03:38:32;;;;;;;13.30;9.13;;;16.20;1.00;;;;;;5079678;28;20233;-54
2023/05/06 03:40:58;;;;;;;11.20;9.30;;;16.20;1.00;;;;;;5074040;28;20184;-52
2023/05/06 03:43:23;;;;;;;9.50;8.60;;;16.10;1.00;;;;;;5071084;28;20461;-52
2023/05/06 03:45:49;;;;;;;11.10;10.10;;;16.10;1.00;;;;;;5067719;28;20271;-55
2023/05/06 03:48:15;;;;;;;10.90;10.00;;;16.20;1.00;;;;;;5067190;28;20206;-55
2023/05/06 03:50:41;;;;;;;11.33;10.20;;;16.10;1.00;;;;;;5067674;28;20183;-53
2023/05/06 03:53:07;;;;;;;10.30;9.20;;;16.00;1.00;;;;;;5065374;28;20283;-53
2023/05/06 03:55:32;;;;;;;11.60;9.70;;;15.90;1.00;;;;;;5074804;28;20537;-53
2023/05/06 03:57:59;;;;;;;12.93;11.53;;;15.90;1.00;;;;;;5076169;28;20285;-51
2023/05/06 04:00:25;;;;;;;11.00;9.90;;;16.00;1.00;;;;;;5078637;28;20188;-52
2023/05/06 04:02:51;;;;;;;11.80;10.70;;;16.00;1.00;;;;;;5068870;28;20480;-52
2023/05/06 04:05:17;;;;;;;11.50;10.37;;;16.00;1.00;;;;;;5067337;28;20529;-52
2023/05/06 04:07:42;;;;;;;10.83;9.80;;;16.00;1.00;;;;;;5064500;28;20183;-53
2023/05/06 04:10:08;;;;;;;9.57;8.70;;;15.90;1.00;;;;;;5067046;28;20180;-54
2023/05/06 04:12:34;;;;;;;10.13;9.23;;;15.90;1.00;;;;;;5069238;28;20207;-55
2023/05/06 04:14:59;;;;;;;10.13;8.97;;;15.90;1.00;;;;;;5069874;28;20483;-51
2023/05/06 04:17:25;;;;;;;9.33;8.47;;;16.00;1.00;;;;;;5079569;28;20187;-53
2023/05/06 04:19:52;;;;;;;9.93;9.03;;;16.00;1.00;;;;;;5065933;28;20192;-55
2023/05/06 04:22:18;;;;;;;10.73;9.73;;;16.10;1.00;;;;;;5069932;28;20307;-53
2023/05/06 04:24:44;;;;;;;10.10;9.20;;;16.10;1.00;;;;;;5073512;28;20791;-52
2023/05/06 04:27:10;;;;;;;9.67;8.80;;;16.10;1.00;;;;;;5068396;28;20453;-54
2023/05/06 04:29:36;;;;;;;10.00;8.97;;;16.30;1.00;;;;;;5066919;28;20184;-55
2023/05/06 04:32:03;;;;;;;9.63;8.47;;;16.30;1.00;;;;;;5066515;28;20948;-52
2023/05/06 04:34:29;;;;;;;10.93;9.10;;;16.30;1.00;;;;;;5067785;28;20533;-54
2023/05/06 04:36:55;;;;;;;10.27;9.27;;;16.20;1.00;;;;;;5067372;28;20529;-52
2023/05/06 04:39:21;;;;;;;11.07;9.20;;;16.30;1.00;;;;;;5068834;28;20434;-52
2023/05/06 04:41:48;;;;;;;10.17;8.40;;;16.10;1.00;;;;;;5069019;28;20951;-54
2023/05/06 04:44:13;;;;;;;10.13;9.30;;;16.20;1.00;;;;;;5068011;28;20831;-52
2023/05/06 04:46:39;;;;;;;10.67;9.70;;;16.20;1.00;;;;;;5070141;28;20475;-56
2023/05/06 04:49:05;;;;;;;9.50;8.60;;;16.30;1.00;;;;;;5072632;28;20180;-55
2023/05/06 04:51:30;;;;;;;9.97;9.07;;;16.40;1.00;;;;;;5074087;28;20188;-54
2023/05/06 04:53:56;;;;;;;9.90;9.00;;;16.40;1.00;;;;;;5077814;28;20533;-55
2023/05/06 04:56:21;;;;;;;10.43;9.50;;;16.50;1.00;;;;;;5070006;28;20223;-54
2023/05/06 04:58:47;;;;;;;10.83;9.37;;;16.50;1.00;;;;;;5069334;28;20199;-55
2023/05/06 05:01:13;;;;;;;10.00;8.97;;;16.50;1.00;;;;;;5070531;28;20198;-55
2023/05/06 05:03:38;;;;;;;10.60;9.70;;;16.60;1.00;;;;;;5070666;28;20264;-52
2023/05/06 05:06:04;;;;;;;9.80;8.80;;;16.60;1.00;;;;;;5070787;28;20260;-53
2023/05/06 05:08:30;;;;;;;9.73;8.73;;;16.50;1.00;;;;;;5070057;28;20184;-52
2023/05/06 05:10:55;;;;;;;10.80;9.23;;;16.40;1.00;;;;;;5070223;28;20191;-56
2023/05/06 05:13:21;;;;;;;12.47;11.37;;;16.30;1.00;;;;;;5071613;28;20218;-53
2023/05/06 05:15:46;;;;;;;12.10;10.90;;;16.30;1.00;;;;;;5078320;28;20188;-54
2023/05/06 05:18:12;;;;;;;10.97;9.87;;;16.30;1.00;;;;;;5066197;28;20668;-55
2023/05/06 05:20:38;;;;;;;13.03;10.87;;;16.30;1.00;;;;;;5070462;28;20180;-54
2023/05/06 05:23:03;;;;;;;10.70;9.70;;;16.40;1.00;;;;;;5065342;28;20214;-55
2023/05/06 05:25:29;;;;;;;10.10;9.13;;;16.60;1.00;;;;;;5071752;28;20214;-54
2023/05/06 05:27:54;;;;;;;11.37;9.70;;;16.70;1.00;;;;;;5070395;28;20196;-54
2023/05/06 05:30:20;;;;;;;11.70;10.57;;;16.70;1.00;;;;;;5067872;28;20668;-55
2023/05/06 05:32:46;;;;;;;10.83;9.90;;;16.80;1.00;;;;;;5069473;28;20675;-53
2023/05/06 05:35:11;;;;;;;13.20;11.03;;;16.80;1.00;;;;;;5068842;28;20188;-53
2023/05/06 05:37:37;;;;;;;13.40;12.10;;;17.00;1.00;;;;;;5069611;28;20212;-55
2023/05/06 05:40:03;;;;;;;13.00;11.90;;;17.00;1.00;;;;;;5064240;28;20326;-53
2023/05/06 05:42:32;;;;;;;15.90;14.30;;;17.00;1.00;;;;;;5082249;28;20216;-55
2023/05/06 05:45:01;;;;;;;15.47;13.97;;;17.00;1.00;;;;;;5069635;28;20446;-56
2023/05/06 05:47:26;;;;;;;15.13;13.70;;;17.10;1.00;;;;;;5082227;28;20531;-52
2023/05/06 05:49:53;;;;;;;19.13;16.43;;;17.00;1.00;;;;;;5092016;28;20560;-53
2023/05/06 05:52:18;;;;;;;16.27;14.87;;;16.90;1.00;;;;;;5080171;28;20194;-53
2023/05/06 05:54:44;;;;;;;17.70;14.73;;;16.90;1.00;;;;;;5077405;28;20925;-54
2023/05/06 05:57:09;;;;;;;18.00;16.17;;;16.90;1.00;;;;;;5069246;28;20696;-53
2023/05/06 05:59:36;;;;;;;16.37;14.77;;;16.90;1.00;;;;;;5076103;28;20198;-54
2023/05/06 06:02:01;;;;;;;17.87;14.80;;;16.90;1.00;;;;;;5067767;28;20243;-53
2023/05/06 06:04:27;;;;;;;17.77;16.07;;;16.90;1.00;;;;;;5071264;28;20530;-55
2023/05/06 06:06:56;;;;;;;17.20;15.50;;;16.80;1.00;;;;;;5071624;28;20282;-52
2023/05/06 06:09:22;;;;;;;18.00;16.20;;;16.80;1.00;;;;;;5067404;28;20184;-54
2023/05/06 06:11:48;;;;;;;20.77;16.80;;;16.80;1.00;;;;;;5067930;28;20549;-53
2023/05/06 06:14:13;;;;;;;20.50;16.67;;;16.70;1.00;;;;;;5065295;28;20442;-51
2023/05/06 06:16:39;;;;;;;17.90;16.00;;;16.70;1.00;;;;;;5055556;28;20176;-57
2023/05/06 06:19:05;;;;;;;18.40;16.47;;;16.60;1.00;;;;;;5069496;28;20186;-52
2023/05/06 06:21:31;;;;;;;18.63;16.63;;;16.40;1.00;;;;;;5059927;28;20196;-53
2023/05/06 06:23:56;;;;;;;17.07;15.23;;;16.40;1.00;;;;;;5066657;28;20520;-54
2023/05/06 06:26:22;;;;;;;17.43;15.80;;;16.40;1.00;;;;;;5066288;28;20272;-54
2023/05/06 06:28:47;;;;;;;17.67;15.90;;;16.50;1.00;;;;;;5068050;28;20226;-52
2023/05/06 06:31:13;;;;;;;17.13;15.43;;;16.60;1.00;;;;;;5067490;28;20212;-52
2023/05/06 06:33:39;;;;;;;16.47;14.77;;;16.60;1.00;;;;;;5069525;28;20522;-57
2023/05/06 06:36:04;;;;;;;22.10;15.40;;;16.80;1.00;;;;;;5078996;28;20214;-55
2023/05/06 06:38:30;;;;;;;14.00;12.70;;;17.10;1.00;;;;;;5068197;28;20184;-53
2023/05/06 06:40:56;;;;;;;16.83;13.40;;;17.30;1.00;;;;;;5061728;28;20193;-52
2023/05/06 06:43:23;;;;;;;16.60;14.90;;;17.40;1.00;;;;;;5055853;28;20256;-52
2023/05/06 06:45:49;;;;;;;17.23;15.43;;;17.40;1.00;;;;;;5064651;28;20225;-51
2023/05/06 06:48:15;;;;;;;16.53;14.37;;;17.50;1.00;;;;;;5068771;28;20943;-54
2023/05/06 06:50:41;;;;;;;15.63;14.13;;;17.40;1.00;;;;;;5067270;28;20205;-52
2023/05/06 06:53:06;;;;;;;16.60;14.93;;;17.50;1.00;;;;;;5079592;28;20238;-55
2023/05/06 06:55:32;;;;;;;14.80;13.30;;;17.60;1.00;;;;;;5067405;28;20673;-52
2023/05/06 06:57:58;;;;;;;15.47;13.20;;;17.70;1.00;;;;;;5066095;28;20190;-53
2023/05/06 07:00:23;;;;;;;15.13;13.70;;;17.90;1.00;;;;;;5077725;28;20183;-54
2023/05/06 07:02:49;;;;;;;17.10;13.90;;;18.10;1.00;;;;;;5068388;28;20641;-51
2023/05/06 07:05:16;;;;;;;14.80;13.27;;;18.20;1.00;;;;;;5070676;28;20208;-54
2023/05/06 07:07:42;;;;;;;14.60;12.97;;;18.20;1.00;;;;;;5061778;28;20774;-53
2023/05/06 07:10:08;;;;;;;18.63;14.40;;;18.30;1.00;;;;;;5063679;28;20449;-57
2023/05/06 07:12:34;;;;;;;13.87;12.47;;;18.20;1.00;;;;;;5068615;28;20184;-52
2023/05/06 07:14:59;;;;;;;14.60;13.00;;;18.10;1.00;;;;;;5066980;28;20448;-51
2023/05/06 07:17:25;;;;;;;14.93;13.33;;;18.20;1.00;;;;;;5064812;28;20179;-54
2023/05/06 07:19:51;;;;;;;14.60;13.20;;;17.90;1.00;;;;;;5067478;28;20209;-53
2023/05/06 07:22:16;;;;;;;13.67;12.30;;;17.80;1.00;;;;;;5063785;28;20211;-53
2023/05/06 07:24:42;;;;;;;12.93;11.63;;;17.70;1.00;;;;;;5072495;28;20194;-53
2023/05/06 07:27:08;;;;;;;14.40;13.00;;;17.80;1.00;;;;;;5070289;28;20661;-54
2023/05/06 07:29:35;;;;;;;14.97;12.90;;;17.60;1.00;;;;;;5073599;28;20195;-53
2023/05/06 07:32:01;;;;;;;14.73;13.27;;;17.60;1.00;;;;;;5089537;28;20658;-52
2023/05/06 07:34:27;;;;;;;14.33;13.00;;;17.60;1.00;;;;;;5063270;28;20442;-55
2023/05/06 07:36:54;;;;;;;17.00;15.30;;;17.60;1.00;;;;;;5062104;28;20470;-55
2023/05/06 07:39:20;;;;;;;18.10;16.10;;;17.40;1.00;;;;;;5068736;28;20183;-54
2023/05/06 07:41:45;;;;;;;18.53;16.50;;;17.30;1.00;;;;;;5068643;28;20834;-53
2023/05/06 07:44:11;;;;;;;21.77;19.60;;;17.20;1.00;;;;;;5076053;28;20188;-55
2023/05/06 07:46:37;;;;;;;23.00;19.93;;;17.00;1.00;;;;;;5063396;28;20184;-52
2023/05/06 07:49:03;;;;;;;22.23;19.97;;;17.00;1.00;;;;;;5069283;28;20176;-54
2023/05/06 07:51:28;;;;;;;21.70;19.50;;;17.00;1.00;;;;;;5064957;28;20253;-51
2023/05/06 07:53:54;;;;;;;22.00;19.83;;;16.80;1.00;;;;;;5069712;28;20191;-51
2023/05/06 07:56:19;;;;;;;22.50;20.30;;;16.80;1.00;;;;;;5065858;28;20263;-54
2023/05/06 07:58:45;;;;;;;22.47;20.10;;;16.40;1.00;;;;;;5068383;28;20175;-53
2023/05/06 08:01:11;;;;;;;21.73;19.73;;;16.70;1.00;;;;;;5059919;28;20680;-56
2023/05/06 08:03:36;;;;;;;22.90;20.50;;;16.60;1.00;;;;;;5066262;28;20676;-55
2023/05/06 08:06:02;;;;;;;22.87;20.60;;;16.60;1.00;;;;;;5084080;28;20190;-54
2023/05/06 08:08:28;;;;;;;22.00;19.83;;;16.60;1.00;;;;;;5069567;28;20594;-54
2023/05/06 08:10:54;;;;;;;24.60;22.20;;;16.70;1.00;;;;;;5069242;28;20180;-56
2023/05/06 08:13:20;;;;;;;22.30;20.20;;;16.80;1.00;;;;;;5070932;28;20654;-54
2023/05/06 08:15:46;;;;;;;20.83;18.83;;;16.90;1.00;;;;;;5066352;28;20457;-52
2023/05/06 08:18:11;;;;;;;22.77;20.67;;;16.90;1.00;;;;;;5068210;28;20196;-55
2023/05/06 08:20:37;;;;;;;23.67;21.10;;;16.80;1.00;;;;;;5070409;28;20266;-54
2023/05/06 08:23:03;;;;;;;22.67;20.30;;;17.00;1.00;;;;;;5081522;28;20219;-57
2023/05/06 08:25:28;;;;;;;23.87;21.33;;;16.90;1.00;;;;;;5070632;28;20202;-56
2023/05/06 08:27:55;;;;;;;24.10;21.50;;;16.60;1.00;;;;;;5073566;28;20680;-56
2023/05/06 08:30:20;;;;;;;23.73;21.23;;;16.50;1.00;;;;;;5074129;28;20198;-55
2023/05/06 08:32:46;;;;;;;24.30;21.67;;;16.50;1.00;;;;;;5076898;28;20445;-55
2023/05/06 08:35:12;;;;;;;22.30;20.00;;;16.60;1.00;;;;;;5069155;28;20226;-56
2023/05/06 08:37:39;;;;;;;23.50;21.00;;;16.30;1.00;;;;;;5076226;28;20714;-51
2023/05/06 08:40:14;;;;;;;23.27;20.07;;;16.20;1.00;;;;;;5082163;28;20959;-54
2023/05/06 08:42:41;;;;;;;24.23;19.20;;;16.00;1.00;;;;;;5068647;28;20468;-54
2023/05/06 08:45:08;;;;;;;23.63;20.13;;;16.00;1.00;;;;;;5071112;28;20789;-54
2023/05/06 08:47:34;;;;;;;23.50;19.97;;;16.10;1.00;;;;;;5080153;28;20449;-52
2023/05/06 08:50:00;;;;;;;22.30;20.00;;;16.20;1.00;;;;;;5083195;28;20450;-53
2023/05/06 08:52:26;;;;;;;20.30;18.10;;;16.20;1.00;;;;;;5067039;28;21011;-54
2023/05/06 08:54:59;;;;;;;23.37;20.00;;;16.40;1.00;;;;;;5091159;28;20441;-53
2023/05/06 08:57:28;;;;;;;22.63;19.53;;;16.30;1.00;;;;;;5071302;28;20482;-54
2023/05/06 08:59:54;;;;;;;26.90;21.47;;;16.40;1.00;;;;;;5072605;28;20783;-55
2023/05/06 09:02:21;;;;;;;24.87;21.77;;;16.50;1.00;;;;;;5069079;28;20574;-57
2023/05/06 09:04:48;;;;;;;23.07;20.60;;;16.50;1.00;;;;;;5075804;28;20644;-52
2023/05/06 09:07:13;;;;;;;24.13;19.17;;;16.50;1.00;;;;;;5070396;28;20448;-53
2023/05/06 09:09:40;;;;;;;26.03;21.50;;;16.50;1.00;;;;;;5069528;28;20480;-55
2023/05/06 09:12:14;;;;;;;22.20;18.83;;;16.60;1.00;;;;;;5070317;28;20446;-56
2023/05/06 09:14:43;;;;;;;21.43;19.00;;;16.70;1.00;;;;;;5081755;28;20206;-51
2023/05/06 09:17:28;;;;;;;24.00;19.77;;;16.70;1.00;;;;;;5068825;28;20503;-55
2023/05/06 09:19:55;;;;;;;25.50;20.77;;;16.80;1.00;;;;;;5075736;28;20438;-54
2023/05/06 09:22:25;;;;;;;23.10;19.67;;;16.60;1.00;;;;;;5071381;28;20545;-54
2023/05/06 09:24:55;;;;;;;21.33;19.03;;;16.70;1.00;;;;;;5072992;28;20495;-56
2023/05/06 09:27:32;;;;;;;24.73;20.50;;;16.60;1.00;;;;;;5071625;28;20429;-54
2023/05/06 09:30:06;;;;;;;25.90;20.17;;;16.70;1.00;;;;;;5070572;28;20953;-55
2023/05/06 09:32:32;;;;;;;23.37;19.67;;;16.60;1.00;;;;;;5070958;28;20483;-54
2023/05/06 09:34:59;;;;;;;22.03;19.53;;;16.50;1.00;;;;;;5062337;28;20454;-53
2023/05/06 09:37:26;;;;;;;26.57;20.37;;;16.50;1.00;;;;;;5067600;28;20776;-54
2023/05/06 09:39:56;;;;;;;22.53;20.13;;;16.60;1.00;;;;;;5063292;28;20438;-52
2023/05/06 09:42:26;;;;;;;32.03;21.37;;;16.60;1.00;;;;;;5076001;28;20467;-53
2023/05/06 09:45:00;;;;;;;26.23;20.87;;;16.70;1.00;;;;;;5066176;28;20450;-54
2023/05/06 09:47:27;;;;;;;23.73;19.13;;;16.70;1.00;;;;;;5071237;28;20426;-55
2023/05/06 09:50:00;;;;;;;24.90;20.60;;;16.90;1.00;;;;;;5066554;28;20442;-57
2023/05/06 09:52:29;;;;;;;21.87;19.33;;;17.20;1.00;;;;;;5071773;28;20460;-56
2023/05/06 09:54:55;;;;;;;25.60;19.83;;;17.30;1.00;;;;;;5068377;28;20864;-55
2023/05/06 09:57:22;;;;;;;21.77;19.40;;;17.50;1.00;;;;;;5069272;28;20484;-52
2023/05/06 09:59:49;;;;;;;26.50;20.40;;;17.70;1.00;;;;;;5071845;28;20454;-55
2023/05/06 10:02:15;;;;;;;21.30;19.10;;;18.00;1.00;;;;;;5068557;28;20464;-52
2023/05/06 10:04:41;;;;;;;19.40;17.17;;;18.30;1.00;;;;;;5067089;28;20442;-54
2023/05/06 10:07:11;;;;;;;22.67;19.30;;;18.60;1.00;;;;;;5083859;28;20961;-54
2023/05/06 10:09:39;;;;;;;22.53;20.20;;;18.40;1.00;;;;;;5070620;28;20971;-54
2023/05/06 10:12:07;;;;;;;21.13;19.00;;;17.90;1.00;;;;;;5068440;28;20478;-55
2023/05/06 10:14:36;;;;;;;20.63;18.43;;;17.50;1.00;;;;;;5064779;28;21005;-54
2023/05/06 10:17:07;;;;;;;22.10;19.50;;;17.40;1.00;;;;;;5073768;28;20470;-53
2023/05/06 10:19:33;;;;;;;22.00;19.70;;;17.30;1.00;;;;;;5070289;28;20580;-54
2023/05/06 10:22:09;;;;;;;23.83;19.23;;;17.10;1.00;;;;;;5074442;28;20528;-54
2023/05/06 10:24:46;;;;;;;21.77;19.50;;;16.80;1.00;;;;;;5074557;28;20471;-54
2023/05/06 10:27:16;;;;;;;22.93;19.50;;;16.80;1.00;;;;;;5069975;28;20939;-54
2023/05/06 10:29:44;;;;;;;26.20;20.70;;;16.70;1.00;;;;;;5070846;28;20434;-54
2023/05/06 10:32:11;;;;;;;22.30;19.67;;;16.70;1.00;;;;;;5067726;28;20450;-55
2023/05/06 10:34:46;;;;;;;21.20;18.90;;;16.80;1.00;;;;;;5074555;28;20477;-53
2023/05/06 10:37:13;;;;;;;21.80;18.27;;;16.90;1.00;;;;;;5075476;28;20439;-54
2023/05/06 10:39:40;;;;;;;23.87;19.90;;;17.00;1.00;;;;;;5073411;28;20583;-56
2023/05/06 10:42:10;;;;;;;21.87;17.97;;;17.00;1.00;;;;;;5081436;28;20445;-52
2023/05/06 10:44:55;;;;;;;21.57;19.47;;;17.10;1.00;;;;;;5086289;28;20443;-52
2023/05/06 10:47:21;;;;;;;22.13;19.53;;;17.10;1.00;;;;;;5078531;28;21008;-53
2023/05/06 10:50:20;;;;;;;23.30;19.30;;;17.10;1.00;;;;;;5071994;28;20529;-52
2023/05/06 10:52:48;;;;;;;21.57;18.60;;;17.00;1.00;;;;;;5072360;28;20187;-56
2023/05/06 10:55:32;;;;;;;25.03;18.97;;;17.00;1.00;;;;;;5066981;28;20891;-54
2023/05/06 10:58:11;;;;;;;20.17;18.03;;;17.00;1.00;;;;;;5066890;28;20540;-55
2023/05/06 11:00:37;;;;;;;23.67;18.80;;;16.90;1.00;;;;;;5073780;28;20781;-53
2023/05/06 11:03:08;;;;;;;22.90;16.33;;;16.90;1.00;;;;;;5076122;28;20472;-52
2023/05/06 11:05:50;;;;;;;20.57;17.93;;;17.00;1.00;;;;;;5063719;28;20449;-57
2023/05/06 11:08:24;;;;;;;19.43;16.53;;;17.20;1.00;;;;;;5064094;28;21012;-53
2023/05/06 11:10:50;;;;;;;20.57;15.80;;;17.30;1.00;;;;;;5068404;28;20441;-53
2023/05/06 11:13:20;;;;;;;18.07;16.13;;;17.60;1.00;;;;;;5077147;28;20799;-54
2023/05/06 11:15:49;;;;;;;19.00;15.10;;;17.70;1.00;;;;;;5075605;28;20488;-55
2023/05/06 11:18:25;;;;;;;17.73;15.97;;;17.60;1.00;;;;;;5065174;28;20566;-53
2023/05/06 11:21:11;;;;;;;17.70;15.80;;;17.60;1.00;;;;;;5074904;28;20463;-55
2023/05/06 11:23:45;;;;;;;17.80;15.93;;;17.60;1.00;;;;;;5064408;28;20560;-55
2023/05/06 11:26:12;;;;;;;16.57;14.13;;;17.40;1.00;;;;;;5072266;28;21018;-54
2023/05/06 11:28:39;;;;;;;17.23;14.10;;;17.30;1.00;;;;;;5077105;28;20442;-54
2023/05/06 11:31:06;;;;;;;14.27;12.77;;;17.30;1.00;;;;;;5079062;28;20445;-55
2023/05/06 11:33:34;;;;;;;13.80;12.40;;;17.40;1.00;;;;;;5068931;28;20448;-52
2023/05/06 11:36:01;;;;;;;13.93;12.53;;;17.40;1.00;;;;;;5069740;28;20500;-53
2023/05/06 11:38:55;;;;;;;14.20;12.73;;;17.60;1.00;;;;;;5071071;28;20449;-57
2023/05/06 11:41:22;;;;;;;13.97;11.40;;;17.60;1.00;;;;;;5067595;28;20461;-52
2023/05/06 11:43:49;;;;;;;13.43;11.97;;;17.70;1.00;;;;;;5068908;28;20808;-53
2023/05/06 11:46:17;;;;;;;14.27;12.17;;;17.60;1.00;;;;;;5067999;28;20511;-54
2023/05/06 11:48:43;;;;;;;13.50;12.10;;;17.80;1.00;;;;;;5071211;28;20469;-53
2023/05/06 11:51:08;;;;;;;11.83;10.67;;;18.10;1.00;;;;;;5069098;28;20466;-55
2023/05/06 11:53:34;;;;;;;12.63;11.33;;;18.50;1.00;;;;;;5069079;28;20214;-55
2023/05/06 11:56:00;;;;;;;12.40;11.20;;;18.40;1.00;;;;;;5062735;28;20630;-54
2023/05/06 11:58:27;;;;;;;11.87;10.67;;;18.50;1.00;;;;;;5062806;28;20194;-56
2023/05/06 12:01:01;;;;;;;11.10;10.00;;;18.70;1.00;;;;;;5067788;28;20719;-56
2023/05/06 12:03:30;;;;;;;11.77;10.63;;;19.00;1.00;;;;;;5069205;28;20543;-56
2023/05/06 12:05:56;;;;;;;12.57;11.33;;;19.30;1.00;;;;;;5068686;28;20878;-55
2023/05/06 12:08:33;;;;;;;11.83;10.70;;;19.60;99.90;;;;;;5065063;28;20450;-53
2023/05/06 12:11:05;;;;;;;13.10;10.83;;;19.70;99.90;;;;;;5069237;28;20449;-54
2023/05/06 12:13:31;;;;;;;11.53;10.33;;;19.90;99.90;;;;;;5058883;28;20457;-55
2023/05/06 12:15:58;;;;;;;12.83;11.53;;;20.20;99.90;;;;;;5060034;28;20482;-52
2023/05/06 12:18:26;;;;;;;13.83;11.73;;;20.40;99.90;;;;;;5064319;28;20460;-54
2023/05/06 12:20:56;;;;;;;14.67;13.17;;;20.50;99.90;;;;;;5067516;28;20469;-54
2023/05/06 12:23:22;;;;;;;14.40;13.03;;;20.20;99.90;;;;;;5075880;28;20505;-55
2023/05/06 12:26:02;;;;;;;15.03;13.50;;;19.90;99.90;;;;;;5065176;28;21169;-55
2023/05/06 12:28:29;;;;;;;17.47;15.63;;;19.70;99.90;;;;;;5068719;28;20426;-57
2023/05/06 12:30:55;;;;;;;15.50;13.60;;;19.90;99.90;;;;;;5081574;28;20840;-54
2023/05/06 12:33:20;;;;;;;16.40;14.80;;;19.70;99.90;;;;;;5089442;28;20526;-55
2023/05/06 12:35:46;;;;;;;16.87;15.07;;;19.80;99.90;;;;;;5089449;28;20644;-56
2023/05/06 12:38:13;;;;;;;15.87;14.20;;;19.80;99.90;;;;;;5089092;28;20184;-56
2023/05/06 12:40:41;;;;;;;16.97;14.10;;;19.90;99.90;;;;;;5089326;28;20227;-52
2023/05/06 12:43:07;;;;;;;15.00;13.27;;;19.90;99.90;;;;;;5089090;28;20456;-53
2023/05/06 12:45:33;;;;;;;14.87;13.37;;;19.80;99.90;;;;;;5089308;28;20429;-53